createdAt,value
2019-05-25T00:06:05.000Z,23.26
2019-05-25T00:16:05.000Z,23.23
2019-05-25T00:26:05.000Z,23.19
2019-05-25T00:36:05.000Z,23.16
2019-05-25T00:46:05.000Z,23.13
2019-05-25T00:56:05.000Z,23.09
2019-05-25T01:06:05.000Z,23.05
2019-05-25T01:16:05.000Z,22.99
2019-05-25T01:26:05.000Z,22.96
2019-05-25T01:36:05.000Z,22.91
2019-05-25T01:46:05.000Z,22.87
2019-05-25T01:56:05.000Z,22.84
2019-05-25T02:06:07.000Z,22.81
2019-05-25T02:16:05.000Z,22.78
2019-05-25T02:26:05.000Z,22.73
2019-05-25T02:36:05.000Z,22.69
2019-05-25T02:46:05.000Z,22.66
2019-05-25T02:56:05.000Z,22.63
2019-05-25T03:06:05.000Z,22.58
2019-05-25T03:16:07.000Z,22.55
2019-05-25T03:26:05.000Z,22.49
2019-05-25T03:36:05.000Z,22.44
2019-05-25T03:46:05.000Z,22.42
2019-05-25T03:56:05.000Z,22.39
2019-05-25T04:06:05.000Z,22.36
2019-05-25T04:16:05.000Z,22.36
2019-05-25T04:26:05.000Z,22.32
2019-05-25T04:36:05.000Z,22.32
2019-05-25T04:46:05.000Z,22.3
2019-05-25T04:56:05.000Z,22.27
2019-05-25T05:06:05.000Z,22.25
2019-05-25T05:16:05.000Z,22.23
2019-05-25T05:26:05.000Z,22.23
2019-05-25T05:36:05.000Z,22.2
2019-05-25T05:46:05.000Z,22.2
2019-05-25T05:56:06.000Z,22.19
2019-05-25T06:06:05.000Z,22.17
2019-05-25T06:16:08.000Z,22.17
2019-05-25T06:26:06.000Z,22.17
2019-05-25T06:36:06.000Z,22.22
2019-05-25T06:46:06.000Z,22.24
2019-05-25T06:56:06.000Z,22.26
2019-05-25T07:06:06.000Z,22.27
2019-05-25T07:16:06.000Z,22.29
2019-05-25T07:26:07.000Z,22.33
2019-05-25T07:36:06.000Z,22.33
2019-05-25T07:46:08.000Z,22.28
2019-05-25T07:56:07.000Z,22.36
2019-05-25T08:06:06.000Z,22.4
2019-05-25T08:16:06.000Z,22.45
2019-05-25T08:36:08.000Z,22.54
2019-05-25T08:46:06.000Z,22.58
2019-05-25T08:56:06.000Z,22.6
2019-05-25T09:06:06.000Z,22.64
2019-05-25T09:16:06.000Z,22.7
2019-05-25T09:26:07.000Z,22.76
2019-05-25T09:46:06.000Z,22.88
2019-05-25T09:56:06.000Z,22.9
2019-05-25T10:06:06.000Z,23
2019-05-25T10:16:06.000Z,23.05
2019-05-25T10:26:08.000Z,23.12
2019-05-25T10:36:06.000Z,23.13
2019-05-25T10:46:08.000Z,23.14
2019-05-25T10:56:06.000Z,23.22
2019-05-25T11:06:06.000Z,23.21
2019-05-25T11:16:06.000Z,23.25
2019-05-25T11:26:09.000Z,23.28
2019-05-25T11:36:06.000Z,23.31
2019-05-25T11:46:06.000Z,23.32
2019-05-25T11:56:07.000Z,23.36
2019-05-25T12:06:10.000Z,23.4
2019-05-25T12:16:06.000Z,23.39
2019-05-25T12:26:06.000Z,23.41
2019-05-25T12:36:06.000Z,23.4
2019-05-25T12:46:06.000Z,23.47
2019-05-25T12:56:06.000Z,23.51
2019-05-25T13:06:06.000Z,23.49
2019-05-25T13:16:06.000Z,23.5
2019-05-25T13:26:06.000Z,23.48
2019-05-25T13:36:08.000Z,23.49
2019-05-25T13:46:06.000Z,23.51
2019-05-25T13:56:07.000Z,23.51
2019-05-25T14:06:06.000Z,23.53
2019-05-25T14:16:06.000Z,23.55
2019-05-25T14:26:06.000Z,23.55
2019-05-25T14:36:07.000Z,23.56
2019-05-25T14:46:10.000Z,23.59
2019-05-25T15:06:09.000Z,23.53
2019-05-25T15:16:07.000Z,23.55
2019-05-25T15:26:07.000Z,23.54
2019-05-25T15:36:07.000Z,23.53
2019-05-25T15:46:07.000Z,23.53
2019-05-25T15:56:07.000Z,23.52
2019-05-25T16:06:07.000Z,23.53
2019-05-25T16:16:07.000Z,23.55
2019-05-25T16:26:07.000Z,23.54
2019-05-25T16:36:07.000Z,23.54
2019-05-25T16:46:07.000Z,23.54
2019-05-25T16:56:07.000Z,23.55
2019-05-25T17:06:07.000Z,23.57
2019-05-25T17:16:07.000Z,23.54
2019-05-25T17:26:07.000Z,23.52
2019-05-25T17:36:07.000Z,23.5
2019-05-25T17:46:07.000Z,23.48
2019-05-25T17:56:07.000Z,23.47
2019-05-25T18:06:08.000Z,23.46
2019-05-25T18:16:07.000Z,23.49
2019-05-25T18:36:09.000Z,23.42
2019-05-25T18:46:11.000Z,23.37
2019-05-25T18:56:07.000Z,23.33
2019-05-25T19:06:07.000Z,23.27
2019-05-25T19:16:07.000Z,23.24
2019-05-25T19:26:07.000Z,23.2
2019-05-25T19:36:07.000Z,23.17
2019-05-25T19:46:07.000Z,23.14
2019-05-25T19:56:07.000Z,23.12
2019-05-25T20:06:07.000Z,23.09
2019-05-25T20:16:07.000Z,23.05
2019-05-25T20:26:07.000Z,23.03
2019-05-25T20:36:07.000Z,23.02
2019-05-25T20:46:07.000Z,23
2019-05-25T20:56:07.000Z,22.98
2019-05-25T21:06:07.000Z,22.96
2019-05-25T21:16:07.000Z,22.97
2019-05-25T21:26:10.000Z,22.89
2019-05-25T21:36:07.000Z,22.88
2019-05-25T21:46:10.000Z,22.88
2019-05-25T21:56:07.000Z,22.82
2019-05-25T22:06:07.000Z,22.81
2019-05-25T22:16:07.000Z,22.75
2019-05-25T22:26:07.000Z,22.69
2019-05-25T22:36:07.000Z,22.63
2019-05-25T22:46:10.000Z,22.6
2019-05-25T22:56:08.000Z,22.55
2019-05-25T23:06:10.000Z,22.49
2019-05-25T23:16:08.000Z,22.46
2019-05-25T23:26:08.000Z,22.41
2019-05-25T23:36:08.000Z,22.39
2019-05-25T23:46:08.000Z,22.38
2019-05-25T23:56:08.000Z,22.34
